sensor_id;sensor_type;location;lat;lon;timestamp;P1;durP1;ratioP1;P2;durP2;ratioP2
37205;SDS011;23099;42.636;23.198;2023-03-24T00:01:41;16.42;;;7.70;;
37205;SDS011;23099;42.636;23.198;2023-03-24T00:04:08;14.32;;;6.43;;
37205;SDS011;23099;42.636;23.198;2023-03-24T00:06:34;18.27;;;8.10;;
37205;SDS011;23099;42.636;23.198;2023-03-24T00:09:02;26.23;;;8.98;;
37205;SDS011;23099;42.636;23.198;2023-03-24T00:13:59;16.83;;;7.35;;
37205;SDS011;23099;42.636;23.198;2023-03-24T00:16:26;44.50;;;14.63;;
37205;SDS011;23099;42.636;23.198;2023-03-24T00:18:54;28.83;;;9.55;;
37205;SDS011;23099;42.636;23.198;2023-03-24T00:21:21;33.13;;;12.15;;
37205;SDS011;23099;42.636;23.198;2023-03-24T00:23:49;28.42;;;14.00;;
37205;SDS011;23099;42.636;23.198;2023-03-24T00:26:18;27.60;;;13.45;;
37205;SDS011;23099;42.636;23.198;2023-03-24T00:28:47;31.40;;;13.65;;
37205;SDS011;23099;42.636;23.198;2023-03-24T00:31:15;35.95;;;14.80;;
37205;SDS011;23099;42.636;23.198;2023-03-24T00:33:43;39.47;;;16.33;;
37205;SDS011;23099;42.636;23.198;2023-03-24T00:36:14;29.05;;;12.63;;
37205;SDS011;23099;42.636;23.198;2023-03-24T00:38:43;17.23;;;7.65;;
37205;SDS011;23099;42.636;23.198;2023-03-24T00:41:11;19.77;;;8.18;;
37205;SDS011;23099;42.636;23.198;2023-03-24T00:43:38;20.92;;;8.13;;
37205;SDS011;23099;42.636;23.198;2023-03-24T00:46:07;17.55;;;6.32;;
37205;SDS011;23099;42.636;23.198;2023-03-24T00:48:38;18.67;;;7.57;;
37205;SDS011;23099;42.636;23.198;2023-03-24T00:51:06;24.98;;;10.45;;
37205;SDS011;23099;42.636;23.198;2023-03-24T00:53:35;13.40;;;5.40;;
37205;SDS011;23099;42.636;23.198;2023-03-24T00:56:07;10.90;;;4.72;;
37205;SDS011;23099;42.636;23.198;2023-03-24T00:58:35;11.85;;;4.53;;
37205;SDS011;23099;42.636;23.198;2023-03-24T01:01:02;11.75;;;4.40;;
37205;SDS011;23099;42.636;23.198;2023-03-24T01:03:32;11.25;;;4.18;;
37205;SDS011;23099;42.636;23.198;2023-03-24T01:06:07;9.52;;;3.88;;
37205;SDS011;23099;42.636;23.198;2023-03-24T01:08:35;13.50;;;4.57;;
37205;SDS011;23099;42.636;23.198;2023-03-24T01:11:02;10.75;;;4.30;;
37205;SDS011;23099;42.636;23.198;2023-03-24T01:13:31;23.98;;;11.95;;
37205;SDS011;23099;42.636;23.198;2023-03-24T01:15:58;10.68;;;4.65;;
37205;SDS011;23099;42.636;23.198;2023-03-24T01:18:25;12.05;;;5.57;;
37205;SDS011;23099;42.636;23.198;2023-03-24T01:20:53;60.75;;;21.13;;
37205;SDS011;23099;42.636;23.198;2023-03-24T01:23:21;72.18;;;24.50;;
37205;SDS011;23099;42.636;23.198;2023-03-24T01:25:49;117.10;;;38.38;;
37205;SDS011;23099;42.636;23.198;2023-03-24T01:28:17;83.78;;;35.13;;
37205;SDS011;23099;42.636;23.198;2023-03-24T01:30:47;52.85;;;22.40;;
37205;SDS011;23099;42.636;23.198;2023-03-24T01:33:14;28.17;;;12.52;;
37205;SDS011;23099;42.636;23.198;2023-03-24T01:35:41;26.92;;;11.40;;
37205;SDS011;23099;42.636;23.198;2023-03-24T01:38:11;17.30;;;7.40;;
37205;SDS011;23099;42.636;23.198;2023-03-24T01:40:41;12.38;;;5.55;;
37205;SDS011;23099;42.636;23.198;2023-03-24T01:43:16;14.48;;;4.60;;
37205;SDS011;23099;42.636;23.198;2023-03-24T01:45:50;11.75;;;4.65;;
37205;SDS011;23099;42.636;23.198;2023-03-24T01:48:24;9.98;;;4.22;;
37205;SDS011;23099;42.636;23.198;2023-03-24T01:50:54;16.60;;;7.13;;
37205;SDS011;23099;42.636;23.198;2023-03-24T01:53:24;12.95;;;4.95;;
37205;SDS011;23099;42.636;23.198;2023-03-24T01:55:52;10.05;;;4.22;;
37205;SDS011;23099;42.636;23.198;2023-03-24T01:58:20;10.13;;;3.88;;
37205;SDS011;23099;42.636;23.198;2023-03-24T02:00:48;10.98;;;5.05;;
37205;SDS011;23099;42.636;23.198;2023-03-24T02:03:16;10.98;;;4.53;;
37205;SDS011;23099;42.636;23.198;2023-03-24T02:05:46;13.80;;;5.60;;
37205;SDS011;23099;42.636;23.198;2023-03-24T02:08:17;15.82;;;6.30;;
37205;SDS011;23099;42.636;23.198;2023-03-24T02:10:51;11.88;;;5.68;;
37205;SDS011;23099;42.636;23.198;2023-03-24T02:13:20;16.40;;;7.05;;
37205;SDS011;23099;42.636;23.198;2023-03-24T02:15:50;20.58;;;8.57;;
37205;SDS011;23099;42.636;23.198;2023-03-24T02:18:25;16.88;;;7.88;;
37205;SDS011;23099;42.636;23.198;2023-03-24T02:24:21;22.23;;;8.95;;
37205;SDS011;23099;42.636;23.198;2023-03-24T02:27:10;22.92;;;9.77;;
37205;SDS011;23099;42.636;23.198;2023-03-24T02:30:05;26.10;;;10.00;;
37205;SDS011;23099;42.636;23.198;2023-03-24T02:35:49;20.65;;;7.72;;
37205;SDS011;23099;42.636;23.198;2023-03-24T02:38:33;16.77;;;6.53;;
37205;SDS011;23099;42.636;23.198;2023-03-24T02:41:19;14.98;;;6.68;;
37205;SDS011;23099;42.636;23.198;2023-03-24T02:43:52;14.20;;;5.18;;
37205;SDS011;23099;42.636;23.198;2023-03-24T02:46:32;20.15;;;6.60;;
37205;SDS011;23099;42.636;23.198;2023-03-24T02:49:07;15.52;;;6.53;;
37205;SDS011;23099;42.636;23.198;2023-03-24T02:51:46;19.33;;;6.18;;
37205;SDS011;23099;42.636;23.198;2023-03-24T02:54:18;15.18;;;7.40;;
37205;SDS011;23099;42.636;23.198;2023-03-24T02:56:54;16.20;;;6.80;;
37205;SDS011;23099;42.636;23.198;2023-03-24T02:59:26;14.23;;;6.65;;
37205;SDS011;23099;42.636;23.198;2023-03-24T03:02:02;17.63;;;7.40;;
37205;SDS011;23099;42.636;23.198;2023-03-24T03:04:34;15.38;;;6.05;;
37205;SDS011;23099;42.636;23.198;2023-03-24T03:07:04;11.20;;;4.68;;
37205;SDS011;23099;42.636;23.198;2023-03-24T03:09:36;13.00;;;5.65;;
37205;SDS011;23099;42.636;23.198;2023-03-24T03:12:08;20.48;;;10.25;;
37205;SDS011;23099;42.636;23.198;2023-03-24T03:14:38;19.83;;;9.43;;
37205;SDS011;23099;42.636;23.198;2023-03-24T03:17:11;16.65;;;7.80;;
37205;SDS011;23099;42.636;23.198;2023-03-24T03:19:44;15.68;;;6.93;;
37205;SDS011;23099;42.636;23.198;2023-03-24T03:22:17;18.05;;;7.93;;
37205;SDS011;23099;42.636;23.198;2023-03-24T03:24:48;12.00;;;5.45;;
37205;SDS011;23099;42.636;23.198;2023-03-24T03:27:21;9.93;;;4.78;;
37205;SDS011;23099;42.636;23.198;2023-03-24T03:29:52;12.02;;;5.18;;
37205;SDS011;23099;42.636;23.198;2023-03-24T03:32:21;12.68;;;5.13;;
37205;SDS011;23099;42.636;23.198;2023-03-24T03:34:54;15.35;;;7.43;;
37205;SDS011;23099;42.636;23.198;2023-03-24T03:37:28;15.18;;;6.72;;
37205;SDS011;23099;42.636;23.198;2023-03-24T03:40:00;13.38;;;6.72;;
37205;SDS011;23099;42.636;23.198;2023-03-24T03:42:34;11.90;;;6.15;;
37205;SDS011;23099;42.636;23.198;2023-03-24T03:45:02;11.65;;;5.05;;
37205;SDS011;23099;42.636;23.198;2023-03-24T03:47:29;10.50;;;4.95;;
37205;SDS011;23099;42.636;23.198;2023-03-24T03:49:56;17.67;;;5.88;;
37205;SDS011;23099;42.636;23.198;2023-03-24T03:52:23;14.13;;;5.88;;
37205;SDS011;23099;42.636;23.198;2023-03-24T03:54:50;13.77;;;7.55;;
37205;SDS011;23099;42.636;23.198;2023-03-24T03:57:18;13.80;;;7.35;;
37205;SDS011;23099;42.636;23.198;2023-03-24T03:59:47;19.40;;;8.80;;
37205;SDS011;23099;42.636;23.198;2023-03-24T04:02:22;15.00;;;7.28;;
37205;SDS011;23099;42.636;23.198;2023-03-24T04:05:08;12.98;;;7.05;;
37205;SDS011;23099;42.636;23.198;2023-03-24T04:10:54;15.90;;;9.00;;
37205;SDS011;23099;42.636;23.198;2023-03-24T04:13:48;14.35;;;7.38;;
37205;SDS011;23099;42.636;23.198;2023-03-24T04:16:27;14.25;;;8.13;;
37205;SDS011;23099;42.636;23.198;2023-03-24T04:19:10;15.13;;;8.18;;
37205;SDS011;23099;42.636;23.198;2023-03-24T04:21:56;14.02;;;6.60;;
37205;SDS011;23099;42.636;23.198;2023-03-24T04:24:37;15.05;;;7.40;;
37205;SDS011;23099;42.636;23.198;2023-03-24T04:27:11;14.52;;;7.22;;
37205;SDS011;23099;42.636;23.198;2023-03-24T04:29:48;13.23;;;7.68;;
37205;SDS011;23099;42.636;23.198;2023-03-24T04:32:25;16.95;;;8.25;;
37205;SDS011;23099;42.636;23.198;2023-03-24T04:34:57;14.93;;;7.13;;
37205;SDS011;23099;42.636;23.198;2023-03-24T04:37:30;20.70;;;8.25;;
37205;SDS011;23099;42.636;23.198;2023-03-24T04:40:03;27.30;;;10.77;;
37205;SDS011;23099;42.636;23.198;2023-03-24T04:42:35;30.58;;;13.52;;
37205;SDS011;23099;42.636;23.198;2023-03-24T04:45:03;30.02;;;13.60;;
37205;SDS011;23099;42.636;23.198;2023-03-24T04:47:35;22.80;;;10.07;;
37205;SDS011;23099;42.636;23.198;2023-03-24T04:50:07;22.95;;;10.32;;
37205;SDS011;23099;42.636;23.198;2023-03-24T04:55:02;25.45;;;11.88;;
37205;SDS011;23099;42.636;23.198;2023-03-24T04:57:43;22.55;;;11.13;;
37205;SDS011;23099;42.636;23.198;2023-03-24T05:00:11;24.85;;;12.93;;
37205;SDS011;23099;42.636;23.198;2023-03-24T05:02:41;21.52;;;11.05;;
37205;SDS011;23099;42.636;23.198;2023-03-24T05:05:09;17.65;;;10.07;;
37205;SDS011;23099;42.636;23.198;2023-03-24T05:07:36;17.20;;;8.93;;
37205;SDS011;23099;42.636;23.198;2023-03-24T05:10:03;21.58;;;10.95;;
37205;SDS011;23099;42.636;23.198;2023-03-24T05:12:30;17.73;;;10.55;;
37205;SDS011;23099;42.636;23.198;2023-03-24T05:14:57;19.27;;;11.18;;
37205;SDS011;23099;42.636;23.198;2023-03-24T05:17:23;19.08;;;10.98;;
37205;SDS011;23099;42.636;23.198;2023-03-24T05:19:51;17.35;;;9.20;;
37205;SDS011;23099;42.636;23.198;2023-03-24T05:22:18;15.27;;;7.82;;
37205;SDS011;23099;42.636;23.198;2023-03-24T05:24:45;14.50;;;7.78;;
37205;SDS011;23099;42.636;23.198;2023-03-24T05:27:11;16.73;;;6.57;;
37205;SDS011;23099;42.636;23.198;2023-03-24T05:29:38;18.83;;;10.00;;
37205;SDS011;23099;42.636;23.198;2023-03-24T05:32:05;17.15;;;9.20;;
37205;SDS011;23099;42.636;23.198;2023-03-24T05:34:32;15.45;;;8.90;;
37205;SDS011;23099;42.636;23.198;2023-03-24T05:37:00;27.08;;;12.15;;
37205;SDS011;23099;42.636;23.198;2023-03-24T05:39:26;17.08;;;8.82;;
37205;SDS011;23099;42.636;23.198;2023-03-24T05:41:53;15.43;;;7.40;;
37205;SDS011;23099;42.636;23.198;2023-03-24T05:44:20;15.23;;;7.57;;
37205;SDS011;23099;42.636;23.198;2023-03-24T05:46:46;15.18;;;7.43;;
37205;SDS011;23099;42.636;23.198;2023-03-24T05:49:13;13.30;;;7.60;;
37205;SDS011;23099;42.636;23.198;2023-03-24T05:51:40;16.10;;;7.10;;
37205;SDS011;23099;42.636;23.198;2023-03-24T05:54:08;13.32;;;7.38;;
37205;SDS011;23099;42.636;23.198;2023-03-24T05:56:35;15.88;;;8.00;;
37205;SDS011;23099;42.636;23.198;2023-03-24T05:59:01;12.65;;;6.72;;
37205;SDS011;23099;42.636;23.198;2023-03-24T06:01:28;15.07;;;7.13;;
37205;SDS011;23099;42.636;23.198;2023-03-24T06:03:55;26.70;;;15.48;;
37205;SDS011;23099;42.636;23.198;2023-03-24T06:06:21;34.90;;;19.25;;
37205;SDS011;23099;42.636;23.198;2023-03-24T06:08:48;26.88;;;16.10;;
37205;SDS011;23099;42.636;23.198;2023-03-24T06:11:20;11.98;;;6.82;;
37205;SDS011;23099;42.636;23.198;2023-03-24T06:13:46;12.82;;;6.82;;
37205;SDS011;23099;42.636;23.198;2023-03-24T06:16:13;16.42;;;8.68;;
37205;SDS011;23099;42.636;23.198;2023-03-24T06:18:42;19.48;;;10.77;;
37205;SDS011;23099;42.636;23.198;2023-03-24T06:21:16;21.88;;;11.98;;
37205;SDS011;23099;42.636;23.198;2023-03-24T06:23:43;19.20;;;10.77;;
37205;SDS011;23099;42.636;23.198;2023-03-24T06:26:11;21.23;;;11.38;;
37205;SDS011;23099;42.636;23.198;2023-03-24T06:28:40;23.52;;;12.02;;
37205;SDS011;23099;42.636;23.198;2023-03-24T06:31:07;17.65;;;9.70;;
37205;SDS011;23099;42.636;23.198;2023-03-24T06:33:38;21.10;;;11.27;;
37205;SDS011;23099;42.636;23.198;2023-03-24T06:36:06;17.65;;;10.13;;
37205;SDS011;23099;42.636;23.198;2023-03-24T06:38:34;15.77;;;7.43;;
37205;SDS011;23099;42.636;23.198;2023-03-24T06:41:00;14.43;;;6.90;;
37205;SDS011;23099;42.636;23.198;2023-03-24T06:43:27;24.17;;;7.07;;
37205;SDS011;23099;42.636;23.198;2023-03-24T06:45:55;16.42;;;6.80;;
37205;SDS011;23099;42.636;23.198;2023-03-24T06:48:22;15.45;;;6.07;;
37205;SDS011;23099;42.636;23.198;2023-03-24T06:50:50;16.05;;;6.38;;
37205;SDS011;23099;42.636;23.198;2023-03-24T06:53:17;12.27;;;6.57;;
37205;SDS011;23099;42.636;23.198;2023-03-24T06:55:45;10.90;;;5.43;;
37205;SDS011;23099;42.636;23.198;2023-03-24T06:58:12;13.52;;;5.93;;
37205;SDS011;23099;42.636;23.198;2023-03-24T07:00:40;14.88;;;6.25;;
37205;SDS011;23099;42.636;23.198;2023-03-24T07:03:09;10.98;;;5.70;;
37205;SDS011;23099;42.636;23.198;2023-03-24T07:05:38;11.77;;;5.75;;
37205;SDS011;23099;42.636;23.198;2023-03-24T07:08:05;16.92;;;6.53;;
37205;SDS011;23099;42.636;23.198;2023-03-24T07:10:33;14.55;;;6.90;;
37205;SDS011;23099;42.636;23.198;2023-03-24T07:13:00;21.08;;;9.20;;
37205;SDS011;23099;42.636;23.198;2023-03-24T07:15:27;18.95;;;11.35;;
37205;SDS011;23099;42.636;23.198;2023-03-24T07:17:54;18.63;;;10.73;;
37205;SDS011;23099;42.636;23.198;2023-03-24T07:20:22;23.38;;;12.93;;
37205;SDS011;23099;42.636;23.198;2023-03-24T07:22:49;28.52;;;15.15;;
37205;SDS011;23099;42.636;23.198;2023-03-24T07:25:16;28.67;;;16.13;;
37205;SDS011;23099;42.636;23.198;2023-03-24T07:27:46;27.80;;;17.05;;
37205;SDS011;23099;42.636;23.198;2023-03-24T07:30:13;30.80;;;16.80;;
37205;SDS011;23099;42.636;23.198;2023-03-24T07:32:40;28.80;;;16.35;;
37205;SDS011;23099;42.636;23.198;2023-03-24T07:35:08;36.50;;;16.00;;
37205;SDS011;23099;42.636;23.198;2023-03-24T07:37:37;35.17;;;16.77;;
37205;SDS011;23099;42.636;23.198;2023-03-24T07:40:05;33.13;;;17.45;;
37205;SDS011;23099;42.636;23.198;2023-03-24T07:42:36;31.40;;;16.27;;
37205;SDS011;23099;42.636;23.198;2023-03-24T07:45:03;34.05;;;18.25;;
37205;SDS011;23099;42.636;23.198;2023-03-24T07:47:30;27.63;;;17.08;;
37205;SDS011;23099;42.636;23.198;2023-03-24T07:49:56;27.88;;;16.65;;
37205;SDS011;23099;42.636;23.198;2023-03-24T07:52:23;32.05;;;17.67;;
37205;SDS011;23099;42.636;23.198;2023-03-24T07:54:51;29.10;;;15.30;;
37205;SDS011;23099;42.636;23.198;2023-03-24T07:57:18;20.00;;;10.23;;
37205;SDS011;23099;42.636;23.198;2023-03-24T07:59:45;18.02;;;9.85;;
37205;SDS011;23099;42.636;23.198;2023-03-24T08:02:15;18.23;;;8.75;;
37205;SDS011;23099;42.636;23.198;2023-03-24T08:04:42;13.77;;;6.97;;
37205;SDS011;23099;42.636;23.198;2023-03-24T08:07:09;14.98;;;6.57;;
37205;SDS011;23099;42.636;23.198;2023-03-24T08:12:05;14.50;;;7.07;;
37205;SDS011;23099;42.636;23.198;2023-03-24T08:14:32;11.15;;;5.57;;
37205;SDS011;23099;42.636;23.198;2023-03-24T08:16:59;10.13;;;4.57;;
37205;SDS011;23099;42.636;23.198;2023-03-24T08:19:26;10.07;;;4.00;;
37205;SDS011;23099;42.636;23.198;2023-03-24T08:21:53;12.77;;;4.43;;
37205;SDS011;23099;42.636;23.198;2023-03-24T08:24:20;13.27;;;5.15;;
37205;SDS011;23099;42.636;23.198;2023-03-24T08:26:46;12.68;;;4.85;;
37205;SDS011;23099;42.636;23.198;2023-03-24T08:29:14;9.95;;;4.20;;
37205;SDS011;23099;42.636;23.198;2023-03-24T08:31:41;9.80;;;3.92;;
37205;SDS011;23099;42.636;23.198;2023-03-24T08:34:08;9.32;;;3.97;;
37205;SDS011;23099;42.636;23.198;2023-03-24T08:36:35;10.38;;;4.72;;
37205;SDS011;23099;42.636;23.198;2023-03-24T08:39:02;13.02;;;4.10;;
37205;SDS011;23099;42.636;23.198;2023-03-24T08:43:59;14.02;;;7.28;;
37205;SDS011;23099;42.636;23.198;2023-03-24T08:46:28;19.38;;;9.55;;
37205;SDS011;23099;42.636;23.198;2023-03-24T08:48:55;24.15;;;12.32;;
37205;SDS011;23099;42.636;23.198;2023-03-24T08:51:23;22.73;;;12.85;;
37205;SDS011;23099;42.636;23.198;2023-03-24T08:53:50;21.60;;;13.48;;
37205;SDS011;23099;42.636;23.198;2023-03-24T08:56:18;27.00;;;13.65;;
37205;SDS011;23099;42.636;23.198;2023-03-24T08:58:45;24.92;;;13.50;;
37205;SDS011;23099;42.636;23.198;2023-03-24T09:01:12;21.92;;;12.95;;
37205;SDS011;23099;42.636;23.198;2023-03-24T09:03:40;26.02;;;12.75;;
37205;SDS011;23099;42.636;23.198;2023-03-24T09:06:08;25.15;;;12.98;;
37205;SDS011;23099;42.636;23.198;2023-03-24T09:08:36;21.63;;;12.65;;
37205;SDS011;23099;42.636;23.198;2023-03-24T09:11:03;22.85;;;11.95;;
37205;SDS011;23099;42.636;23.198;2023-03-24T09:13:30;27.20;;;15.18;;
37205;SDS011;23099;42.636;23.198;2023-03-24T09:15:57;23.55;;;13.27;;
37205;SDS011;23099;42.636;23.198;2023-03-24T09:18:26;21.80;;;10.80;;
37205;SDS011;23099;42.636;23.198;2023-03-24T09:20:55;17.15;;;9.77;;
37205;SDS011;23099;42.636;23.198;2023-03-24T09:23:22;18.60;;;9.50;;
37205;SDS011;23099;42.636;23.198;2023-03-24T09:25:49;21.27;;;10.27;;
37205;SDS011;23099;42.636;23.198;2023-03-24T09:28:16;17.77;;;8.23;;
37205;SDS011;23099;42.636;23.198;2023-03-24T09:30:43;13.75;;;7.07;;
37205;SDS011;23099;42.636;23.198;2023-03-24T09:33:10;17.13;;;7.97;;
37205;SDS011;23099;42.636;23.198;2023-03-24T09:35:36;15.02;;;9.00;;
37205;SDS011;23099;42.636;23.198;2023-03-24T09:38:05;13.60;;;7.75;;
37205;SDS011;23099;42.636;23.198;2023-03-24T09:40:34;15.50;;;9.70;;
37205;SDS011;23099;42.636;23.198;2023-03-24T09:43:02;19.58;;;11.07;;
37205;SDS011;23099;42.636;23.198;2023-03-24T09:45:32;18.63;;;9.98;;
37205;SDS011;23099;42.636;23.198;2023-03-24T09:48:02;17.73;;;9.38;;
37205;SDS011;23099;42.636;23.198;2023-03-24T09:50:32;19.02;;;9.98;;
37205;SDS011;23099;42.636;23.198;2023-03-24T09:53:06;21.02;;;9.52;;
37205;SDS011;23099;42.636;23.198;2023-03-24T09:55:38;14.18;;;8.52;;
37205;SDS011;23099;42.636;23.198;2023-03-24T09:58:10;17.70;;;9.80;;
37205;SDS011;23099;42.636;23.198;2023-03-24T10:00:38;16.42;;;9.38;;
37205;SDS011;23099;42.636;23.198;2023-03-24T10:03:10;17.73;;;9.63;;
37205;SDS011;23099;42.636;23.198;2023-03-24T10:05:45;18.92;;;8.80;;
37205;SDS011;23099;42.636;23.198;2023-03-24T10:08:20;16.95;;;9.93;;
37205;SDS011;23099;42.636;23.198;2023-03-24T10:10:54;15.23;;;8.80;;
37205;SDS011;23099;42.636;23.198;2023-03-24T10:13:28;16.23;;;9.32;;
37205;SDS011;23099;42.636;23.198;2023-03-24T10:16:06;16.77;;;9.48;;
37205;SDS011;23099;42.636;23.198;2023-03-24T10:18:39;18.48;;;9.55;;
37205;SDS011;23099;42.636;23.198;2023-03-24T10:21:13;17.63;;;9.25;;
37205;SDS011;23099;42.636;23.198;2023-03-24T10:23:47;16.40;;;9.30;;
37205;SDS011;23099;42.636;23.198;2023-03-24T10:26:25;17.17;;;9.60;;
37205;SDS011;23099;42.636;23.198;2023-03-24T10:29:02;21.75;;;9.77;;
37205;SDS011;23099;42.636;23.198;2023-03-24T10:31:46;18.25;;;8.73;;
37205;SDS011;23099;42.636;23.198;2023-03-24T10:34:16;20.17;;;9.10;;
37205;SDS011;23099;42.636;23.198;2023-03-24T10:36:43;19.97;;;9.60;;
37205;SDS011;23099;42.636;23.198;2023-03-24T10:39:13;16.25;;;8.50;;
37205;SDS011;23099;42.636;23.198;2023-03-24T10:41:42;16.05;;;8.05;;
37205;SDS011;23099;42.636;23.198;2023-03-24T10:44:09;17.45;;;7.53;;
37205;SDS011;23099;42.636;23.198;2023-03-24T10:46:39;15.25;;;8.52;;
37205;SDS011;23099;42.636;23.198;2023-03-24T10:49:15;20.27;;;9.02;;
37205;SDS011;23099;42.636;23.198;2023-03-24T10:51:44;14.07;;;7.68;;
37205;SDS011;23099;42.636;23.198;2023-03-24T10:54:15;14.75;;;8.02;;
37205;SDS011;23099;42.636;23.198;2023-03-24T10:56:44;14.77;;;7.97;;
37205;SDS011;23099;42.636;23.198;2023-03-24T10:59:19;15.48;;;7.03;;
37205;SDS011;23099;42.636;23.198;2023-03-24T11:01:54;15.05;;;8.00;;
37205;SDS011;23099;42.636;23.198;2023-03-24T11:04:22;17.02;;;8.02;;
37205;SDS011;23099;42.636;23.198;2023-03-24T11:07:00;15.77;;;8.10;;
37205;SDS011;23099;42.636;23.198;2023-03-24T11:09:38;17.08;;;7.43;;
37205;SDS011;23099;42.636;23.198;2023-03-24T11:12:16;18.35;;;8.45;;
37205;SDS011;23099;42.636;23.198;2023-03-24T11:14:47;18.73;;;8.88;;
37205;SDS011;23099;42.636;23.198;2023-03-24T11:17:14;14.48;;;8.38;;
37205;SDS011;23099;42.636;23.198;2023-03-24T11:19:48;17.05;;;8.48;;
37205;SDS011;23099;42.636;23.198;2023-03-24T11:22:16;14.60;;;7.82;;
37205;SDS011;23099;42.636;23.198;2023-03-24T11:24:45;14.80;;;7.43;;
37205;SDS011;23099;42.636;23.198;2023-03-24T11:27:14;18.00;;;8.27;;
37205;SDS011;23099;42.636;23.198;2023-03-24T11:29:43;14.65;;;8.05;;
37205;SDS011;23099;42.636;23.198;2023-03-24T11:32:15;14.40;;;7.07;;
37205;SDS011;23099;42.636;23.198;2023-03-24T11:34:49;13.52;;;6.80;;
37205;SDS011;23099;42.636;23.198;2023-03-24T11:37:32;12.40;;;7.03;;
37205;SDS011;23099;42.636;23.198;2023-03-24T11:40:13;10.30;;;5.57;;
37205;SDS011;23099;42.636;23.198;2023-03-24T11:42:42;12.63;;;6.57;;
37205;SDS011;23099;42.636;23.198;2023-03-24T11:45:19;14.82;;;5.72;;
37205;SDS011;23099;42.636;23.198;2023-03-24T11:47:47;11.73;;;6.13;;
37205;SDS011;23099;42.636;23.198;2023-03-24T11:50:17;14.35;;;6.07;;
37205;SDS011;23099;42.636;23.198;2023-03-24T11:52:47;12.07;;;5.10;;
37205;SDS011;23099;42.636;23.198;2023-03-24T11:55:22;12.75;;;5.72;;
37205;SDS011;23099;42.636;23.198;2023-03-24T11:57:55;14.20;;;5.28;;
37205;SDS011;23099;42.636;23.198;2023-03-24T12:00:27;11.65;;;5.22;;
37205;SDS011;23099;42.636;23.198;2023-03-24T12:06:12;9.93;;;5.25;;
37205;SDS011;23099;42.636;23.198;2023-03-24T12:08:51;9.57;;;4.93;;
37205;SDS011;23099;42.636;23.198;2023-03-24T12:11:26;9.38;;;4.68;;
37205;SDS011;23099;42.636;23.198;2023-03-24T12:14:04;9.10;;;4.65;;
37205;SDS011;23099;42.636;23.198;2023-03-24T12:16:36;9.87;;;4.60;;
37205;SDS011;23099;42.636;23.198;2023-03-24T12:21:52;11.00;;;4.70;;
37205;SDS011;23099;42.636;23.198;2023-03-24T12:24:32;10.68;;;4.20;;
37205;SDS011;23099;42.636;23.198;2023-03-24T12:27:16;9.40;;;4.50;;
37205;SDS011;23099;42.636;23.198;2023-03-24T12:29:53;11.32;;;4.70;;
37205;SDS011;23099;42.636;23.198;2023-03-24T12:32:32;8.48;;;3.92;;
37205;SDS011;23099;42.636;23.198;2023-03-24T12:38:04;8.68;;;3.45;;
37205;SDS011;23099;42.636;23.198;2023-03-24T12:40:51;8.57;;;3.60;;
37205;SDS011;23099;42.636;23.198;2023-03-24T12:43:30;11.82;;;3.97;;
37205;SDS011;23099;42.636;23.198;2023-03-24T12:46:05;9.32;;;4.10;;
37205;SDS011;23099;42.636;23.198;2023-03-24T12:48:49;10.25;;;3.90;;
37205;SDS011;23099;42.636;23.198;2023-03-24T12:51:33;6.53;;;2.40;;
37205;SDS011;23099;42.636;23.198;2023-03-24T12:54:14;10.63;;;3.42;;
37205;SDS011;23099;42.636;23.198;2023-03-24T12:56:50;11.48;;;3.92;;
37205;SDS011;23099;42.636;23.198;2023-03-24T12:59:25;12.13;;;3.90;;
37205;SDS011;23099;42.636;23.198;2023-03-24T13:01:58;9.35;;;3.78;;
37205;SDS011;23099;42.636;23.198;2023-03-24T13:04:30;11.05;;;3.95;;
37205;SDS011;23099;42.636;23.198;2023-03-24T13:07:00;7.47;;;3.25;;
37205;SDS011;23099;42.636;23.198;2023-03-24T13:09:33;6.38;;;2.70;;
37205;SDS011;23099;42.636;23.198;2023-03-24T13:12:11;6.03;;;3.00;;
37205;SDS011;23099;42.636;23.198;2023-03-24T13:14:45;6.93;;;2.97;;
37205;SDS011;23099;42.636;23.198;2023-03-24T13:17:20;9.02;;;2.72;;
37205;SDS011;23099;42.636;23.198;2023-03-24T13:19:52;6.07;;;2.50;;
37205;SDS011;23099;42.636;23.198;2023-03-24T13:22:20;7.10;;;2.72;;
37205;SDS011;23099;42.636;23.198;2023-03-24T13:24:50;8.45;;;2.33;;
37205;SDS011;23099;42.636;23.198;2023-03-24T13:27:20;9.88;;;2.95;;
37205;SDS011;23099;42.636;23.198;2023-03-24T13:30:24;7.50;;;2.65;;
37205;SDS011;23099;42.636;23.198;2023-03-24T13:32:58;8.30;;;2.25;;
37205;SDS011;23099;42.636;23.198;2023-03-24T13:35:45;6.50;;;2.85;;
37205;SDS011;23099;42.636;23.198;2023-03-24T13:38:25;8.05;;;2.80;;
37205;SDS011;23099;42.636;23.198;2023-03-24T13:40:57;9.48;;;2.80;;
37205;SDS011;23099;42.636;23.198;2023-03-24T13:43:28;8.88;;;2.80;;
37205;SDS011;23099;42.636;23.198;2023-03-24T13:45:59;8.85;;;2.47;;
37205;SDS011;23099;42.636;23.198;2023-03-24T13:48:29;11.18;;;2.50;;
37205;SDS011;23099;42.636;23.198;2023-03-24T13:51:00;8.35;;;2.40;;
37205;SDS011;23099;42.636;23.198;2023-03-24T13:53:31;7.55;;;2.45;;
37205;SDS011;23099;42.636;23.198;2023-03-24T13:56:01;5.35;;;2.00;;
37205;SDS011;23099;42.636;23.198;2023-03-24T13:58:49;6.65;;;2.63;;
37205;SDS011;23099;42.636;23.198;2023-03-24T14:01:36;9.23;;;2.13;;
37205;SDS011;23099;42.636;23.198;2023-03-24T14:04:19;5.30;;;1.90;;
37205;SDS011;23099;42.636;23.198;2023-03-24T14:07:22;7.20;;;2.30;;
37205;SDS011;23099;42.636;23.198;2023-03-24T14:09:57;6.43;;;2.50;;
37205;SDS011;23099;42.636;23.198;2023-03-24T14:12:25;7.28;;;2.40;;
37205;SDS011;23099;42.636;23.198;2023-03-24T14:17:41;5.72;;;2.25;;
37205;SDS011;23099;42.636;23.198;2023-03-24T14:20:10;5.95;;;2.40;;
37205;SDS011;23099;42.636;23.198;2023-03-24T14:22:39;6.80;;;2.33;;
37205;SDS011;23099;42.636;23.198;2023-03-24T14:25:16;7.88;;;2.45;;
37205;SDS011;23099;42.636;23.198;2023-03-24T14:27:48;13.07;;;2.55;;
37205;SDS011;23099;42.636;23.198;2023-03-24T14:30:20;6.45;;;2.17;;
37205;SDS011;23099;42.636;23.198;2023-03-24T14:32:51;5.50;;;2.20;;
37205;SDS011;23099;42.636;23.198;2023-03-24T14:35:25;8.05;;;2.25;;
37205;SDS011;23099;42.636;23.198;2023-03-24T14:37:57;5.72;;;1.90;;
37205;SDS011;23099;42.636;23.198;2023-03-24T14:40:27;9.63;;;2.20;;
37205;SDS011;23099;42.636;23.198;2023-03-24T14:43:03;8.82;;;1.77;;
37205;SDS011;23099;42.636;23.198;2023-03-24T14:45:51;5.88;;;1.83;;
37205;SDS011;23099;42.636;23.198;2023-03-24T14:48:26;5.22;;;2.10;;
37205;SDS011;23099;42.636;23.198;2023-03-24T14:50:57;6.07;;;1.80;;
37205;SDS011;23099;42.636;23.198;2023-03-24T14:53:26;5.30;;;2.30;;
37205;SDS011;23099;42.636;23.198;2023-03-24T14:55:52;8.50;;;2.00;;
37205;SDS011;23099;42.636;23.198;2023-03-24T14:58:21;5.93;;;2.17;;
37205;SDS011;23099;42.636;23.198;2023-03-24T15:00:50;7.97;;;2.67;;
37205;SDS011;23099;42.636;23.198;2023-03-24T15:03:21;6.25;;;2.20;;
37205;SDS011;23099;42.636;23.198;2023-03-24T15:06:03;9.82;;;2.33;;
37205;SDS011;23099;42.636;23.198;2023-03-24T15:08:37;6.07;;;2.00;;
37205;SDS011;23099;42.636;23.198;2023-03-24T15:11:06;9.63;;;2.63;;
37205;SDS011;23099;42.636;23.198;2023-03-24T15:13:36;8.63;;;2.30;;
37205;SDS011;23099;42.636;23.198;2023-03-24T15:16:07;7.13;;;2.53;;